Time;durP1;ratioP1;P1;durP2;ratioP2;P2;SDS_P1;SDS_P2;PMS_P1;PMS_P2;Temp;Humidity;BMP_temperature;BMP_pressure;BME280_temperature;BME280_humidity;BME280_pressure;Samples;Min_cycle;Max_cycle;Signal;HPM_P1;HPM_P2
2023/05/15 00:00:45;;;;;;;17.40;8.90;;;;;;;17.74;37.90;99680.33;79466;1295;3013728;-66
2023/05/15 00:03:11;;;;;;;17.30;7.30;;;;;;;17.73;37.92;99675.97;79488;1295;3011587;-70
2023/05/15 00:05:39;;;;;;;16.70;8.30;;;;;;;17.75;37.61;99680.04;78466;1296;3026745;-67
2023/05/15 00:08:06;;;;;;;26.10;10.00;;;;;;;17.72;37.55;99675.20;79363;1302;3013610;-63
2023/05/15 00:10:33;;;;;;;27.40;11.60;;;;;;;17.71;37.54;99674.73;79243;1296;3012063;-69
2023/05/15 00:13:01;;;;;;;37.20;18.10;;;;;;;17.73;37.48;99670.46;77997;1296;3028034;-62
2023/05/15 00:15:27;;;;;;;36.50;19.30;;;;;;;17.72;37.26;99673.23;79388;1300;3013702;-67
2023/05/15 00:17:54;;;;;;;33.10;15.30;;;;;;;17.68;37.80;99676.38;79236;1301;3013061;-64
2023/05/15 00:20:22;;;;;;;30.40;14.20;;;;;;;17.70;37.45;99671.23;78091;1302;3027932;-63
2023/05/15 00:22:49;;;;;;;27.00;11.10;;;;;;;17.68;37.35;99669.12;79288;1297;3012874;-64
2023/05/15 00:25:15;;;;;;;22.40;10.50;;;;;;;17.72;37.28;99668.64;79193;1297;3011747;-66
2023/05/15 00:27:44;;;;;;;21.00;10.00;;;;;;;17.73;37.36;99662.30;78000;1302;3028016;-67
2023/05/15 00:30:12;;;;;;;19.80;9.40;;;;;;;17.77;37.11;99664.79;79345;1302;3015982;-66
2023/05/15 00:32:39;;;;;;;13.30;9.80;;;;;;;17.81;36.88;99670.30;79193;1297;3013335;-66
2023/05/15 00:35:07;;;;;;;20.30;11.40;;;;;;;17.82;36.68;99665.29;78130;1296;3048591;-66
2023/05/15 00:37:34;;;;;;;19.80;11.20;;;;;;;17.82;36.65;99665.10;79291;1297;3013755;-66
2023/05/15 00:40:00;;;;;;;18.30;9.20;;;;;;;17.83;36.96;99663.73;79290;1296;3013272;-70
2023/05/15 00:42:28;;;;;;;21.00;10.80;;;;;;;17.85;36.57;99659.12;78075;1300;3028603;-63
2023/05/15 00:44:56;;;;;;;29.50;13.90;;;;;;;17.87;36.70;99662.73;79243;1297;3013454;-68
2023/05/15 00:47:22;;;;;;;28.30;13.80;;;;;;;17.81;36.42;99665.54;79332;1297;3011627;-65
2023/05/15 00:49:50;;;;;;;24.90;12.10;;;;;;;17.82;36.72;99665.94;78058;1300;3049601;-66
2023/05/15 00:52:19;;;;;;;17.20;9.40;;;;;;;17.80;36.61;99665.23;79143;1298;3013069;-63
2023/05/15 00:54:45;;;;;;;21.50;7.50;;;;;;;17.83;36.87;99663.25;79490;1298;3011790;-62
2023/05/15 00:57:13;;;;;;;31.80;8.90;;;;;;;17.78;36.79;99663.85;78338;1296;3052302;-63
2023/05/15 00:59:40;;;;;;;21.60;11.60;;;;;;;17.76;36.78;99666.84;79184;1302;3013239;-65
2023/05/15 01:02:06;;;;;;;16.50;9.40;;;;;;;17.70;36.90;99664.70;79088;1303;3011528;-65
2023/05/15 01:04:34;;;;;;;16.40;9.10;;;;;;;17.67;36.92;99661.73;77967;1301;3026681;-61
2023/05/15 01:07:02;;;;;;;22.90;12.40;;;;;;;17.64;37.03;99663.99;79302;1298;3013685;-64
2023/05/15 01:09:29;;;;;;;24.40;9.90;;;;;;;17.58;37.09;99660.27;79218;1297;3011755;-69
2023/05/15 01:11:56;;;;;;;13.00;7.20;;;;;;;17.58;36.96;99662.39;78025;1303;3053198;-70
2023/05/15 01:14:23;;;;;;;12.90;7.80;;;;;;;17.59;36.93;99663.17;79082;1302;3013635;-64
2023/05/15 01:16:50;;;;;;;15.00;8.10;;;;;;;17.64;36.61;99662.21;79167;1297;3011417;-68
2023/05/15 01:19:18;;;;;;;15.60;8.40;;;;;;;17.65;36.52;99660.67;78093;1299;3026209;-67
2023/05/15 01:22:02;;;;;;;17.20;10.10;;;;;;;17.65;36.89;99661.83;79299;1296;3018739;-70
2023/05/15 01:24:52;;;;;;;29.90;13.00;;;;;;;17.63;36.74;99659.64;77964;1300;3052596;-65
2023/05/15 01:27:35;;;;;;;13.60;7.20;;;;;;;17.64;36.75;99659.61;78268;1300;3053221;-68
2023/05/15 01:30:17;;;;;;;18.60;8.80;;;;;;;17.65;36.61;99654.69;78144;1300;3070048;-63
2023/05/15 01:33:05;;;;;;;25.30;12.10;;;;;;;17.61;36.78;99653.84;78181;1303;3052680;-71
2023/05/15 01:36:05;;;;;;;26.60;13.70;;;;;;;17.61;36.82;99650.63;78008;1300;3056776;-62
2023/05/15 01:38:37;;;;;;;42.40;15.80;;;;;;;17.49;37.42;99650.55;77869;1303;3048401;-63
2023/05/15 01:41:23;;;;;;;25.00;12.00;;;;;;;17.44;37.52;99650.66;79254;1301;3011807;-69
2023/05/15 01:43:55;;;;;;;24.70;11.20;;;;;;;17.33;37.77;99649.15;77956;1303;3051028;-67
2023/05/15 01:46:22;;;;;;;23.80;10.30;;;;;;;17.27;38.03;99651.61;79260;1302;3011638;-70
2023/05/15 01:48:51;;;;;;;21.30;9.60;;;;;;;17.28;38.04;99651.64;77984;1299;3052447;-66
2023/05/15 01:51:19;;;;;;;25.00;10.30;;;;;;;17.30;38.13;99649.17;79166;1296;3013811;-67
2023/05/15 01:53:46;;;;;;;22.70;11.00;;;;;;;17.24;38.17;99652.15;79293;1296;3013265;-62
2023/05/15 01:56:14;;;;;;;32.40;13.10;;;;;;;17.22;38.53;99647.90;78084;1297;3049500;-65
2023/05/15 01:58:41;;;;;;;21.40;10.50;;;;;;;17.19;38.80;99645.19;79273;1297;3012694;-69
2023/05/15 02:01:08;;;;;;;22.70;10.60;;;;;;;17.20;38.80;99646.21;79241;1301;3011853;-60
2023/05/15 02:03:36;;;;;;;16.00;9.60;;;;;;;17.22;38.68;99644.02;77787;1303;3052704;-66
2023/05/15 02:06:03;;;;;;;18.60;9.10;;;;;;;17.22;38.51;99643.17;79270;1300;3013337;-66
2023/05/15 02:08:30;;;;;;;17.10;8.30;;;;;;;17.19;38.56;99642.15;79224;1295;3011595;-67
2023/05/15 02:11:02;;;;;;;14.40;8.10;;;;;;;17.17;38.81;99647.11;78083;1295;3048097;-72
2023/05/15 02:13:30;;;;;;;18.80;7.80;;;;;;;17.16;38.60;99650.02;79468;1299;3013863;-67
2023/05/15 02:15:57;;;;;;;24.30;11.80;;;;;;;17.16;38.90;99652.19;78241;1298;3028714;-69
2023/05/15 02:18:27;;;;;;;24.40;10.80;;;;;;;17.13;39.03;99652.94;79524;1299;3012094;-63
2023/05/15 02:21:00;;;;;;;25.00;11.80;;;;;;;17.11;39.00;99651.20;78169;1301;3053266;-70
2023/05/15 02:23:26;;;;;;;26.40;13.60;;;;;;;17.12;39.11;99657.82;79292;1301;3013723;-65
2023/05/15 02:26:06;;;;;;;21.20;11.40;;;;;;;17.11;38.93;99655.41;78894;1295;3011732;-66
2023/05/15 02:28:41;;;;;;;23.90;13.30;;;;;;;17.09;39.26;99650.31;78156;1295;3057558;-71
2023/05/15 02:31:16;;;;;;;27.00;15.00;;;;;;;17.09;39.04;99654.20;79045;1296;3011493;-65
2023/05/15 02:33:42;;;;;;;24.90;14.60;;;;;;;17.09;39.21;99651.01;79751;1295;3012020;-65
2023/05/15 02:36:14;;;;;;;22.40;12.70;;;;;;;17.15;39.05;99647.30;78962;1301;3054472;-63
2023/05/15 02:38:51;;;;;;;22.30;14.80;;;;;;;17.18;38.75;99649.89;80357;1295;3011884;-60
2023/05/15 02:41:20;;;;;;;20.30;8.70;;;;;;;17.19;39.31;99645.52;78515;1301;3050960;-63
2023/05/15 02:43:47;;;;;;;18.70;6.30;;;;;;;16.94;40.69;99653.70;79406;1301;3013446;-68
2023/05/15 02:46:15;;;;;;;7.40;3.90;;;;;;;16.77;40.67;99646.90;79216;1295;3011520;-72
2023/05/15 02:48:43;;;;;;;10.20;3.20;;;;;;;16.76;40.12;99645.04;78022;1298;3056113;-68
2023/05/15 02:51:09;;;;;;;9.00;2.70;;;;;;;16.85;39.96;99640.77;79271;1295;3020629;-62
2023/05/15 02:53:40;;;;;;;8.10;2.60;;;;;;;16.89;39.71;99639.70;79350;1301;3013044;-68
2023/05/15 02:56:08;;;;;;;12.10;3.00;;;;;;;16.97;39.47;99640.54;78250;1300;3052631;-68
2023/05/15 02:58:35;;;;;;;11.50;6.60;;;;;;;17.02;39.47;99641.88;79572;1295;3012967;-64
2023/05/15 03:01:03;;;;;;;10.70;6.90;;;;;;;17.12;38.88;99637.29;79321;1296;3013156;-68
2023/05/15 03:03:31;;;;;;;21.00;10.70;;;;;;;17.21;38.95;99637.72;78354;1300;3057140;-68
2023/05/15 03:05:59;;;;;;;17.00;11.50;;;;;;;17.36;38.44;99638.75;79486;1295;3018940;-65
2023/05/15 03:08:26;;;;;;;20.60;13.10;;;;;;;17.49;38.17;99638.72;79550;1295;3013037;-69
2023/05/15 03:10:54;;;;;;;20.30;13.10;;;;;;;17.57;37.86;99639.30;78168;1301;3053103;-67
2023/05/15 03:13:21;;;;;;;25.80;15.00;;;;;;;17.59;38.09;99646.02;79553;1295;3013714;-68
2023/05/15 03:15:48;;;;;;;21.00;13.10;;;;;;;17.56;37.95;99643.64;79387;1296;3011925;-71
2023/05/15 03:18:17;;;;;;;20.80;10.40;;;;;;;17.55;38.45;99649.70;78114;1298;3056754;-65
2023/05/15 03:20:44;;;;;;;20.00;9.50;;;;;;;17.57;38.42;99644.95;79400;1295;3012878;-67
2023/05/15 03:23:13;;;;;;;16.60;8.40;;;;;;;17.56;38.67;99644.33;78952;1300;3011778;-65
2023/05/15 03:25:40;;;;;;;13.70;7.40;;;;;;;17.52;38.67;99642.47;79394;1298;3013407;-64
2023/05/15 03:28:07;;;;;;;15.00;7.10;;;;;;;17.52;38.70;99646.63;79467;1295;3011431;-65
2023/05/15 03:30:35;;;;;;;9.70;6.60;;;;;;;17.53;38.84;99647.19;78118;1295;3026385;-64
2023/05/15 03:33:02;;;;;;;8.80;6.00;;;;;;;17.57;39.03;99646.73;79496;1295;3013156;-63
2023/05/15 03:35:31;;;;;;;9.80;5.80;;;;;;;17.61;39.15;99649.14;79525;1294;3013404;-68
2023/05/15 03:37:58;;;;;;;10.60;5.50;;;;;;;17.63;39.22;99653.79;78168;1295;3053332;-63
2023/05/15 03:40:25;;;;;;;14.50;7.60;;;;;;;17.63;41.24;99654.19;79498;1298;3021425;-67
2023/05/15 03:42:52;;;;;;;13.00;6.70;;;;;;;17.59;40.41;99658.92;79391;1298;3011778;-70
2023/05/15 03:45:21;;;;;;;13.80;6.80;;;;;;;17.60;39.82;99658.86;78469;1298;3069199;-71
2023/05/15 03:47:48;;;;;;;13.50;6.10;;;;;;;17.59;39.42;99660.88;79449;1296;3013772;-64
2023/05/15 03:50:15;;;;;;;14.50;6.50;;;;;;;17.64;39.38;99664.50;79558;1295;3011807;-65
2023/05/15 03:52:43;;;;;;;13.30;5.40;;;;;;;17.67;39.51;99666.22;78282;1298;3053194;-66
2023/05/15 03:55:10;;;;;;;9.90;5.70;;;;;;;17.69;39.36;99666.56;79385;1301;3013736;-67
2023/05/15 03:57:37;;;;;;;10.40;5.20;;;;;;;17.76;39.44;99664.66;79286;1295;3011704;-65
2023/05/15 04:00:10;;;;;;;8.90;4.80;;;;;;;17.81;39.22;99659.27;78192;1298;3068502;-64
2023/05/15 04:02:41;;;;;;;8.50;4.50;;;;;;;17.88;38.78;99659.08;78191;1298;3053258;-68
2023/05/15 04:05:08;;;;;;;9.50;4.90;;;;;;;17.91;38.84;99657.70;79280;1296;3013310;-64
2023/05/15 04:07:36;;;;;;;13.60;6.10;;;;;;;17.95;39.10;99661.52;79378;1295;3011481;-66
2023/05/15 04:10:04;;;;;;;15.70;8.00;;;;;;;18.00;38.83;99657.67;78071;1301;3050626;-69
2023/05/15 04:12:32;;;;;;;21.90;10.50;;;;;;;18.01;38.83;99664.31;79517;1301;3012919;-64
2023/05/15 04:15:13;;;;;;;24.40;11.70;;;;;;;18.05;38.63;99666.85;79409;1300;3012990;-68
2023/05/15 04:17:45;;;;;;;31.70;15.80;;;;;;;18.10;38.63;99666.18;78157;1295;3051093;-72
2023/05/15 04:20:13;;;;;;;33.50;16.30;;;;;;;18.14;38.28;99663.86;79311;1295;3011577;-65
2023/05/15 04:22:42;;;;;;;35.00;15.60;;;;;;;18.22;38.43;99667.73;78108;1301;3048954;-68
2023/05/15 04:25:09;;;;;;;30.10;14.20;;;;;;;18.30;38.09;99667.28;79472;1295;3019218;-67
2023/05/15 04:27:37;;;;;;;26.90;11.90;;;;;;;18.37;37.76;99665.38;79315;1296;3011990;-69
2023/05/15 04:30:05;;;;;;;22.00;11.00;;;;;;;18.45;38.17;99663.23;78163;1301;3052781;-73
2023/05/15 04:32:33;;;;;;;24.10;11.00;;;;;;;18.54;37.81;99659.41;79391;1298;3015844;-71
2023/05/15 04:35:00;;;;;;;28.70;12.30;;;;;;;18.57;37.55;99663.08;79347;1301;3011651;-64
2023/05/15 04:37:28;;;;;;;31.00;13.90;;;;;;;18.57;37.07;99664.98;78201;1299;3048181;-64
2023/05/15 04:39:55;;;;;;;31.60;13.70;;;;;;;18.56;37.42;99665.65;79271;1295;3013205;-69
2023/05/15 04:42:21;;;;;;;31.10;13.80;;;;;;;18.66;37.43;99667.94;79252;1300;3013365;-64
2023/05/15 04:44:50;;;;;;;25.00;11.80;;;;;;;18.73;37.57;99666.73;78011;1301;3030053;-66
2023/05/15 04:47:16;;;;;;;27.80;11.90;;;;;;;18.82;37.76;99670.34;79270;1295;3013180;-64
2023/05/15 04:49:43;;;;;;;24.20;10.90;;;;;;;18.90;37.98;99672.30;79233;1298;3011598;-61
2023/05/15 04:52:11;;;;;;;23.20;11.40;;;;;;;18.95;37.67;99675.04;77987;1300;3049022;-66
2023/05/15 04:54:38;;;;;;;24.70;11.30;;;;;;;19.00;37.77;99674.05;79249;1295;3019015;-68
2023/05/15 04:57:05;;;;;;;27.80;11.30;;;;;;;19.03;37.85;99676.27;79266;1300;3013475;-69
2023/05/15 04:59:34;;;;;;;29.50;12.40;;;;;;;19.09;37.91;99667.70;78060;1297;3051790;-64
2023/05/15 05:02:01;;;;;;;27.60;11.70;;;;;;;19.19;37.62;99663.81;79306;1300;3013626;-71
2023/05/15 05:04:27;;;;;;;23.80;10.40;;;;;;;19.24;38.58;99670.05;79263;1296;3011668;-68
2023/05/15 05:06:55;;;;;;;24.70;10.00;;;;;;;19.29;38.70;99672.96;78099;1298;3028431;-71
2023/05/15 05:09:22;;;;;;;19.70;9.00;;;;;;;19.32;38.89;99671.66;79481;1295;3021027;-65
2023/05/15 05:11:49;;;;;;;24.20;9.60;;;;;;;19.31;38.57;99671.19;79403;1298;3011686;-65
2023/05/15 05:14:18;;;;;;;20.30;7.80;;;;;;;19.27;38.38;99676.32;78232;1300;3028503;-67
2023/05/15 05:16:44;;;;;;;19.40;8.10;;;;;;;19.27;38.50;99679.39;79216;1297;3015470;-68
2023/05/15 05:19:11;;;;;;;19.50;6.90;;;;;;;19.24;38.41;99676.92;79223;1297;3011508;-70
2023/05/15 05:21:38;;;;;;;18.40;7.20;;;;;;;19.27;38.72;99676.58;78219;1302;3049522;-71
2023/05/15 05:24:05;;;;;;;16.40;7.40;;;;;;;19.34;38.74;99678.52;79211;1303;3012888;-67
2023/05/15 05:26:32;;;;;;;14.00;6.80;;;;;;;19.46;38.14;99670.36;79270;1297;3011595;-66
2023/05/15 05:28:59;;;;;;;16.80;6.70;;;;;;;19.52;37.97;99676.53;78443;1300;3029272;-70
2023/05/15 05:31:26;;;;;;;15.90;6.80;;;;;;;19.55;38.00;99678.31;79540;1300;3012955;-65
2023/05/15 05:33:52;;;;;;;14.00;5.40;;;;;;;19.63;37.87;99675.84;79278;1302;3012127;-65
2023/05/15 05:36:20;;;;;;;13.40;5.60;;;;;;;19.74;37.90;99678.10;78103;1297;3025906;-68
2023/05/15 05:38:47;;;;;;;13.00;6.80;;;;;;;19.85;37.69;99681.72;79408;1312;3013526;-65
2023/05/15 05:41:13;;;;;;;12.60;6.30;;;;;;;19.99;37.54;99679.88;79360;1296;3013560;-72
2023/05/15 05:43:41;;;;;;;18.30;8.10;;;;;;;20.09;36.80;99685.10;78191;1299;3026053;-71
2023/05/15 05:46:07;;;;;;;21.40;10.30;;;;;;;20.15;36.67;99685.23;79381;1297;3013600;-66
2023/05/15 05:48:39;;;;;;;21.50;9.30;;;;;;;20.13;35.78;99684.58;78844;1297;3011621;-67
2023/05/15 05:51:06;;;;;;;25.40;9.50;;;;;;;20.08;35.72;99683.98;79337;1297;3012848;-69
2023/05/15 05:53:33;;;;;;;20.60;8.50;;;;;;;20.13;35.81;99686.51;79664;1300;3011429;-67
2023/05/15 05:56:01;;;;;;;16.60;7.00;;;;;;;20.19;35.48;99680.42;78042;1302;3028205;-65
2023/05/15 05:58:27;;;;;;;16.30;8.50;;;;;;;20.19;34.75;99680.23;79284;1303;3018903;-66
2023/05/15 06:00:54;;;;;;;20.10;7.10;;;;;;;20.23;34.45;99683.93;79509;1300;3011634;-68
2023/05/15 06:03:22;;;;;;;12.60;6.40;;;;;;;20.27;34.05;99684.80;78125;1301;3026813;-65
2023/05/15 06:05:49;;;;;;;10.70;5.20;;;;;;;20.25;34.03;99686.98;79655;1295;3014125;-67
2023/05/15 06:08:17;;;;;;;13.20;5.70;;;;;;;20.33;34.06;99686.77;79472;1297;3012829;-66
2023/05/15 06:10:45;;;;;;;15.00;6.40;;;;;;;20.42;34.50;99686.92;78343;1300;3048984;-66
2023/05/15 06:13:13;;;;;;;13.90;5.10;;;;;;;20.50;34.16;99686.10;79495;1300;3019334;-65
2023/05/15 06:15:40;;;;;;;8.40;4.00;;;;;;;20.62;33.84;99687.27;79405;1297;3011454;-71
2023/05/15 06:18:08;;;;;;;9.00;3.90;;;;;;;20.67;34.07;99683.73;78398;1300;3051749;-69
2023/05/15 06:20:35;;;;;;;7.90;3.60;;;;;;;20.83;34.12;99682.94;79527;1298;3012946;-69
2023/05/15 06:23:01;;;;;;;13.00;4.90;;;;;;;20.95;34.63;99684.85;79193;1297;3011514;-73
2023/05/15 06:25:29;;;;;;;5.40;3.30;;;;;;;21.10;34.10;99684.45;78068;1299;3028591;-61
2023/05/15 06:27:56;;;;;;;5.70;3.10;;;;;;;21.23;33.88;99679.94;79341;1300;3012777;-62
2023/05/15 06:30:22;;;;;;;7.10;3.10;;;;;;;21.32;33.03;99684.88;79290;1298;3011697;-63
2023/05/15 06:32:51;;;;;;;6.50;3.00;;;;;;;21.30;32.30;99682.05;77990;1299;3027941;-64
2023/05/15 06:35:18;;;;;;;7.00;3.00;;;;;;;21.42;32.47;99683.88;79266;1297;3013062;-65
2023/05/15 06:37:49;;;;;;;5.80;2.70;;;;;;;21.55;32.74;99672.77;79088;1296;3011603;-70
2023/05/15 06:40:16;;;;;;;7.90;2.60;;;;;;;21.63;32.45;99672.88;77990;1298;3049749;-62
2023/05/15 06:42:43;;;;;;;7.00;2.90;;;;;;;21.72;32.61;99672.77;79254;1300;3013548;-63
2023/05/15 06:45:10;;;;;;;7.10;2.80;;;;;;;21.78;32.06;99670.77;79931;1297;3011949;-65
2023/05/15 06:47:38;;;;;;;5.20;2.70;;;;;;;21.74;31.39;99669.89;78903;1300;3026377;-64
2023/05/15 06:50:05;;;;;;;7.90;2.50;;;;;;;21.82;31.52;99670.86;80041;1298;3019090;-66
2023/05/15 06:52:32;;;;;;;5.10;2.80;;;;;;;21.93;31.58;99667.02;80020;1296;3013148;-61
2023/05/15 06:55:00;;;;;;;6.70;2.50;;;;;;;22.00;31.19;99667.02;79135;1300;3049781;-61
2023/05/15 06:57:26;;;;;;;8.30;2.70;;;;;;;22.03;30.91;99667.39;79432;1300;3013113;-61
2023/05/15 06:59:53;;;;;;;5.90;2.40;;;;;;;22.11;30.52;99664.96;79343;1300;3011628;-68
2023/05/15 07:02:21;;;;;;;8.60;2.50;;;;;;;22.20;29.91;99667.80;78005;1300;3026714;-63
2023/05/15 07:04:48;;;;;;;3.90;2.20;;;;;;;22.15;29.87;99665.06;77017;1296;6393089;-66
2023/05/15 07:07:15;;;;;;;5.80;2.30;;;;;;;22.25;30.26;99664.77;79500;1298;3011916;-62
2023/05/15 07:09:47;;;;;;;2.60;2.00;;;;;;;22.31;29.68;99667.89;78232;1301;3029065;-65
2023/05/15 07:12:14;;;;;;;7.80;2.30;;;;;;;22.31;28.87;99666.63;79636;1295;3011924;-65
2023/05/15 07:14:42;;;;;;;8.20;2.10;;;;;;;22.37;28.97;99668.66;78420;1299;3026230;-64
2023/05/15 07:17:08;;;;;;;7.80;2.10;;;;;;;22.52;29.10;99664.78;79904;1295;3013554;-64
2023/05/15 07:19:36;;;;;;;8.00;2.20;;;;;;;22.61;28.50;99662.87;79930;1301;3011576;-65
2023/05/15 07:22:04;;;;;;;3.70;2.00;;;;;;;22.68;27.07;99661.78;78717;1298;3050079;-65
2023/05/15 07:24:30;;;;;;;4.30;2.60;;;;;;;22.77;27.89;99659.36;79645;1298;3013159;-64
2023/05/15 07:26:58;;;;;;;5.10;2.30;;;;;;;22.75;27.58;99662.58;79260;1300;3011673;-64
2023/05/15 07:29:26;;;;;;;4.40;2.00;;;;;;;22.77;27.41;99658.27;78237;1296;3051815;-63
2023/05/15 07:31:52;;;;;;;7.40;1.90;;;;;;;22.84;27.35;99661.30;79473;1298;3013030;-66
2023/05/15 07:34:19;;;;;;;5.00;2.10;;;;;;;22.80;27.23;99658.66;79413;1300;3011890;-66
2023/05/15 07:36:47;;;;;;;4.10;2.10;;;;;;;22.77;26.94;99653.27;78197;1298;3028027;-64
2023/05/15 07:39:14;;;;;;;3.50;1.80;;;;;;;22.93;26.58;99651.52;79567;1300;3013586;-67
2023/05/15 07:41:41;;;;;;;5.10;1.40;;;;;;;23.08;25.71;99648.15;79473;1297;3011630;-65
2023/05/15 07:44:09;;;;;;;3.50;1.60;;;;;;;23.11;25.57;99652.31;78138;1300;3029111;-63
2023/05/15 07:46:37;;;;;;;5.30;2.40;;;;;;;23.12;25.57;99657.59;79301;1302;3013893;-67
2023/05/15 07:49:04;;;;;;;3.80;2.10;;;;;;;23.13;26.07;99652.95;79350;1296;3011613;-66
2023/05/15 07:51:32;;;;;;;3.50;1.80;;;;;;;23.31;26.11;99644.55;77821;1297;3049475;-64
2023/05/15 07:53:59;;;;;;;7.80;1.80;;;;;;;23.47;26.05;99638.45;79178;1300;3013486;-65
2023/05/15 07:56:26;;;;;;;7.90;1.90;;;;;;;23.62;26.06;99638.39;79258;1301;3012056;-64
2023/05/15 07:58:53;;;;;;;3.70;1.90;;;;;;;23.70;25.92;99633.10;78109;1303;3025746;-66
2023/05/15 08:01:20;;;;;;;5.80;1.80;;;;;;;23.89;25.94;99633.65;79365;1300;3012662;-62
2023/05/15 08:03:47;;;;;;;4.60;2.00;;;;;;;24.00;25.05;99635.38;79245;1297;3011680;-63
2023/05/15 08:06:15;;;;;;;5.00;2.30;;;;;;;24.11;25.09;99633.61;78206;1299;3026034;-66
2023/05/15 08:08:42;;;;;;;5.70;2.20;;;;;;;24.19;25.05;99632.89;79268;1300;3013142;-64
2023/05/15 08:11:09;;;;;;;4.70;1.90;;;;;;;24.29;25.23;99634.23;79167;1300;3011607;-63
2023/05/15 08:13:36;;;;;;;3.70;2.00;;;;;;;24.33;24.82;99640.72;77892;1300;3026401;-64
2023/05/15 08:16:04;;;;;;;6.90;2.10;;;;;;;24.15;24.29;99634.77;79214;1300;3018549;-65
2023/05/15 08:18:31;;;;;;;6.00;3.10;;;;;;;24.24;24.08;99636.52;79233;1297;3011486;-61
2023/05/15 08:20:58;;;;;;;12.70;4.60;;;;;;;24.29;24.41;99634.70;78063;1297;3049247;-67
2023/05/15 08:23:25;;;;;;;8.50;4.00;;;;;;;24.35;24.09;99635.09;79276;1300;3013188;-66
2023/05/15 08:28:39;;;;;;;4.80;2.90;;;;;;;24.63;24.14;99631.69;79989;1304;3011872;-62
2023/05/15 08:31:06;;;;;;;7.50;3.50;;;;;;;24.89;23.87;99633.59;78954;1301;3020701;-65
2023/05/15 08:33:33;;;;;;;7.50;3.60;;;;;;;24.88;23.58;99631.68;79139;1304;3012029;-68
2023/05/15 08:36:00;;;;;;;5.90;3.30;;;;;;;24.78;23.59;99634.10;77854;1304;3026361;-61
2023/05/15 08:38:27;;;;;;;7.20;3.10;;;;;;;24.75;23.56;99627.96;79002;1303;3013603;-63
2023/05/15 08:41:05;;;;;;;4.60;3.30;;;;;;;24.74;23.49;99629.71;78683;1302;3011545;-66
2023/05/15 08:43:35;;;;;;;7.30;3.40;;;;;;;24.82;23.43;99629.89;78695;1299;3011579;-68
2023/05/15 08:46:02;;;;;;;11.70;3.10;;;;;;;24.98;23.28;99622.08;79338;1298;3013588;-68
2023/05/15 08:48:28;;;;;;;6.60;2.90;;;;;;;25.07;23.38;99616.59;79218;1298;3011990;-68
2023/05/15 08:50:57;;;;;;;6.30;2.20;;;;;;;25.21;23.30;99614.86;78105;1301;3052087;-62
2023/05/15 08:53:23;;;;;;;7.10;3.70;;;;;;;25.32;22.86;99610.81;79269;1301;3013557;-69
2023/05/15 08:55:50;;;;;;;8.00;3.90;;;;;;;25.26;22.56;99611.98;79432;1301;3013277;-66
2023/05/15 08:58:20;;;;;;;6.10;3.10;;;;;;;25.09;22.36;99607.69;77938;1304;3055896;-64
2023/05/15 09:00:47;;;;;;;4.90;3.10;;;;;;;25.13;22.10;99606.64;79199;1299;3013093;-63
2023/05/15 09:03:18;;;;;;;5.60;3.20;;;;;;;25.18;22.19;99603.39;78681;1299;3013283;-69
2023/05/15 09:05:45;;;;;;;7.70;3.40;;;;;;;25.21;22.20;99596.71;79385;1301;3013452;-65
2023/05/15 09:08:14;;;;;;;4.50;3.10;;;;;;;25.28;22.20;99594.64;78744;1301;3011716;-64
2023/05/15 09:10:41;;;;;;;4.80;2.70;;;;;;;25.30;22.51;99592.95;79241;1298;3012986;-64
2023/05/15 09:13:08;;;;;;;5.70;2.70;;;;;;;25.23;22.53;99595.36;79212;1301;3011936;-66
2023/05/15 09:15:36;;;;;;;6.80;2.80;;;;;;;25.19;22.42;99587.63;78490;1297;3026459;-64
2023/05/15 09:18:02;;;;;;;8.60;2.90;;;;;;;25.01;22.18;99587.11;79519;1298;3013067;-65
2023/05/15 09:20:30;;;;;;;4.10;2.50;;;;;;;25.07;22.19;99586.44;79148;1304;3011469;-62
2023/05/15 09:23:00;;;;;;;7.80;2.30;;;;;;;25.23;21.82;99574.98;78116;1300;3053349;-62
2023/05/15 09:25:33;;;;;;;8.40;2.50;;;;;;;25.43;21.51;99580.85;79406;1300;3013406;-64
2023/05/15 09:28:01;;;;;;;4.60;2.30;;;;;;;25.41;21.56;99574.62;78094;1301;3068441;-63
2023/05/15 09:30:29;;;;;;;4.90;2.10;;;;;;;25.59;21.30;99572.69;79387;1298;3012802;-65
2023/05/15 09:33:02;;;;;;;3.70;1.90;;;;;;;25.82;20.76;99572.05;79065;1298;3011586;-62
2023/05/15 09:35:35;;;;;;;5.30;1.80;;;;;;;25.91;19.35;99574.58;78133;1297;3051612;-65
2023/05/15 09:38:03;;;;;;;6.70;1.60;;;;;;;26.00;19.39;99565.86;79386;1298;3012971;-67
2023/05/15 09:40:31;;;;;;;5.50;2.90;;;;;;;26.23;19.59;99563.75;78217;1298;3052499;-66
2023/05/15 09:42:58;;;;;;;5.90;2.30;;;;;;;26.48;20.04;99564.42;79510;1301;3013751;-64
2023/05/15 09:45:25;;;;;;;3.90;2.00;;;;;;;26.73;19.75;99565.01;79516;1300;3012652;-63
2023/05/15 09:47:53;;;;;;;8.00;1.70;;;;;;;26.98;19.72;99562.78;77988;1300;3058626;-69
2023/05/15 09:50:31;;;;;;;3.90;1.60;;;;;;;27.15;19.72;99564.27;79271;1298;3012816;-63
2023/05/15 09:52:59;;;;;;;3.70;1.40;;;;;;;27.20;18.97;99559.92;78259;1300;3049424;-71
2023/05/15 09:55:26;;;;;;;2.90;1.40;;;;;;;27.22;18.80;99563.83;79380;1301;3011540;-60
2023/05/15 09:58:06;;;;;;;3.20;1.30;;;;;;;27.28;18.85;99562.08;79305;1298;3011796;-64
2023/05/15 10:00:35;;;;;;;2.60;1.40;;;;;;;27.49;18.82;99556.88;78071;1301;3050670;-66
2023/05/15 10:03:03;;;;;;;2.00;1.50;;;;;;;27.68;18.73;99560.02;79300;1298;3020721;-67
2023/05/15 10:05:30;;;;;;;4.10;1.50;;;;;;;27.63;18.59;99555.90;79283;1297;3011374;-66
2023/05/15 10:07:59;;;;;;;2.00;1.60;;;;;;;27.75;18.90;99556.69;78044;1301;3049723;-66
2023/05/15 10:10:26;;;;;;;3.90;1.90;;;;;;;27.78;18.95;99557.07;79405;1301;3013320;-61
2023/05/15 10:12:53;;;;;;;4.10;2.00;;;;;;;27.67;19.35;99555.29;79425;1300;3013138;-64
2023/05/15 10:15:21;;;;;;;2.20;1.70;;;;;;;27.46;19.44;99554.55;78160;1301;3051611;-66
2023/05/15 10:17:49;;;;;;;3.60;1.70;;;;;;;27.47;19.85;99554.02;79458;1301;3012854;-61
2023/05/15 10:20:16;;;;;;;5.70;2.10;;;;;;;27.49;19.69;99555.06;79339;1298;3012760;-65
2023/05/15 10:22:46;;;;;;;3.70;2.30;;;;;;;27.61;19.63;99549.88;78269;1295;3049427;-69
2023/05/15 10:25:34;;;;;;;5.60;2.10;;;;;;;27.80;19.60;99544.23;79350;1295;3013512;-65
2023/05/15 10:28:02;;;;;;;4.10;2.30;;;;;;;27.91;19.66;99540.04;78180;1301;3052521;-66
2023/05/15 10:30:30;;;;;;;4.80;2.10;;;;;;;28.02;19.82;99535.70;79272;1301;3013024;-65
2023/05/15 10:32:57;;;;;;;5.80;2.40;;;;;;;28.16;19.73;99536.20;79265;1296;3011464;-65
2023/05/15 10:35:24;;;;;;;4.30;2.10;;;;;;;28.24;19.79;99533.38;78047;1301;3049929;-66
2023/05/15 10:37:52;;;;;;;3.10;2.10;;;;;;;28.34;19.90;99527.27;79446;1297;3018466;-60
2023/05/15 10:40:18;;;;;;;3.10;1.60;;;;;;;28.49;20.05;99531.13;79301;1300;3013401;-63
2023/05/15 10:42:46;;;;;;;3.00;2.00;;;;;;;28.51;20.05;99531.33;78063;1301;3028338;-65
2023/05/15 10:45:13;;;;;;;4.00;1.90;;;;;;;28.23;20.10;99532.04;79282;1301;3013181;-65
2023/05/15 10:47:41;;;;;;;5.60;1.90;;;;;;;27.97;20.59;99534.53;79272;1300;3011708;-63
2023/05/15 10:50:10;;;;;;;10.40;1.90;;;;;;;27.82;20.63;99533.36;78223;1300;3049268;-63
2023/05/15 10:52:38;;;;;;;6.40;2.00;;;;;;;27.65;20.89;99538.21;79268;1297;3013504;-63
2023/05/15 10:55:06;;;;;;;7.60;1.80;;;;;;;27.62;21.04;99537.97;79288;1298;3011322;-66
2023/05/15 10:57:35;;;;;;;4.10;2.00;;;;;;;27.45;20.94;99537.58;78116;1298;3051825;-65
2023/05/15 11:00:04;;;;;;;4.20;2.00;;;;;;;27.46;21.43;99535.38;79426;1295;3013051;-62
2023/05/15 11:02:37;;;;;;;2.40;1.70;;;;;;;27.41;21.33;99528.59;78116;1296;3056067;-64
2023/05/15 11:05:05;;;;;;;5.10;1.90;;;;;;;27.31;21.38;99523.46;79372;1301;3012724;-64
2023/05/15 11:07:34;;;;;;;4.00;1.70;;;;;;;27.30;21.34;99531.84;78145;1296;3052819;-63
2023/05/15 11:10:08;;;;;;;4.20;1.90;;;;;;;27.25;21.34;99533.27;79367;1301;3020702;-63
2023/05/15 11:13:00;;;;;;;3.50;2.00;;;;;;;27.32;21.44;99534.80;78100;1298;3052985;-62
2023/05/15 11:15:40;;;;;;;4.20;1.70;;;;;;;27.19;20.63;99529.17;78082;1298;3068331;-63
2023/05/15 11:18:08;;;;;;;4.50;1.60;;;;;;;27.07;20.89;99531.19;78087;1298;3052543;-64
2023/05/15 11:20:42;;;;;;;3.40;1.70;;;;;;;27.06;20.73;99535.38;79225;1297;3013060;-66